Sunday, May 27, 2018, 11:48 AM EDT

KRDG, Reading Regional Airport

Location: Reading, PA, United States Lat: 40.367
Local Time: 11:48 AM EDT (15:48 GMT) Lon: -75.967
Time Zone: US/Eastern Elev: 344 ft

Show me the last for .
Show Decoded

2018-05-27 10:54 METAR KRDG 271454Z 08006KT 10SM OVC016 22/19 A2997 RMK AO2 SLP151 T02170189
                 51021 =
2018-05-27 09:54 METAR KRDG 271354Z 06006KT 10SM BKN017 OVC050 22/19 A2996 RMK AO2 SLP146
                 T02170189 =
2018-05-27 09:45 METAR KRDG 271345Z 07004KT 10SM BKN017 OVC049 22/19 A2996 RMK AO2 T02170189 =
2018-05-27 09:08 METAR KRDG 271308Z 08009KT 10SM SCT016 BKN034 OVC047 22/19 A2995 RMK AO2
                 T02170194 =
2018-05-27 08:54 METAR KRDG 271254Z 06011KT 030V090 7SM SCT018 BKN026 22/20 A2994 RMK AO2 SLP141
                 T02220200 =
2018-05-27 08:31 METAR KRDG 271231Z 07010KT 8SM BKN018 BKN026 OVC033 23/20 A2994 RMK AO2
                 T02280200 =
2018-05-27 07:54 METAR KRDG 271154Z 03007KT 8SM FEW014 SCT024 BKN032 23/21 A2991 RMK AO2 SLP130
                 60000 T02280206 10244 20217 51017 =
2018-05-27 07:01 METAR KRDG 271101Z 01005KT 10SM FEW019 BKN028 BKN035 22/22 A2991 RMK AO2
                 T02220217 =
2018-05-27 06:54 METAR KRDG 271054Z 00000KT 10SM SCT021 22/22 A2990 RMK AO2 SLP126 T02220217 =
2018-05-27 05:54 METAR KRDG 270954Z 00000KT 10SM SCT021 22/22 A2987 RMK AO2 SLP116 T02170217 =
2018-05-27 04:54 METAR KRDG 270854Z AUTO 00000KT 10SM BKN090 BKN120 23/22 A2986 RMK AO2 RAB16E26
                 SLP112 P0000 60000 T02330217 55000 =
2018-05-27 03:54 METAR KRDG 270754Z AUTO 35004KT 10SM OVC110 23/22 A2985 RMK AO2 SLP110 T02280217
                 =
2018-05-27 02:54 METAR KRDG 270654Z AUTO 00000KT 10SM FEW120 23/22 A2986 RMK AO2 RAE04 SLP111
                 P0000 T02330217 =
2018-05-27 01:54 METAR KRDG 270554Z AUTO 00000KT 10SM -RA BKN110 24/22 A2986 RMK AO2 RAE0456B15
                 SLP112 P0000 60000 T02390217 10294 20239 58001 =
2018-05-27 00:54 METAR KRDG 270454Z AUTO 18005KT 10SM -RA FEW095 SCT120 25/21 A2987 RMK AO2 RAB44
                 SLP115 P0000 T02500211 403220189 =
2018-05-26 23:54 METAR KRDG 270354Z 00000KT 10SM CLR 26/21 A2986 RMK AO2 SLP114 T02610211 =
2018-05-26 22:54 METAR KRDG 270254Z 00000KT 10SM CLR 26/21 A2986 RMK AO2 SLP113 T02560211 51018 =
2018-05-26 21:54 METAR KRDG 270154Z 16003KT 10SM CLR 27/21 A2985 RMK AO2 SLP109 T02670211 =
2018-05-26 20:54 METAR KRDG 270054Z 20009KT 10SM CLR 27/21 A2983 RMK AO2 SLP102 T02720211 =
2018-05-26 19:54 METAR KRDG 262354Z 00000KT 10SM CLR 29/18 A2981 RMK AO2 SLP095 T02940183 10322
                 20294 53004 =
2018-05-26 18:54 METAR KRDG 262254Z 25003KT 10SM CLR 31/19 A2979 RMK AO2 LTG DSNT SE SLP090
                 T03110189 =
2018-05-26 17:54 METAR KRDG 262154Z 00000KT 10SM CLR 32/18 A2979 RMK AO2 SLP090 T03170178 =
2018-05-26 16:54 METAR KRDG 262054Z 28006KT 10SM CLR 32/19 A2979 RMK AO2 SLP091 T03170194 55004 =
2018-05-26 15:54 METAR KRDG 261954Z VRB03KT 10SM SCT040 32/19 A2979 RMK AO2 SLP088 T03170189 =
2018-05-26 14:54 METAR KRDG 261854Z AUTO VRB03KT 10SM SCT040 32/19 A2980 RMK AO2 SLP092 T03170189
                 =
2018-05-26 13:54 METAR KRDG 261754Z 29009KT 10SM SCT040 32/19 A2981 RMK AO2 SLP095 60000
                 T03170194 10317 20228 58012 =
2018-05-26 12:54 METAR KRDG 261654Z 32003KT 10SM SCT045 31/21 A2983 RMK AO2 SLP103 T03060211 =
2018-05-26 11:54 METAR KRDG 261554Z 26006KT 10SM CLR 30/21 A2983 RMK AO2 SLP104 T03000211 =

Support USWX by starting your Amazon purchase here.